sensor_id;sensor_type;location;lat;lon;timestamp;pressure;altitude;pressure_sealevel;temperature;humidity
72359;BME280;60317;48.880;-0.862;2022-12-13T00:00:41;99152.09;;;20.40;26.76
72359;BME280;60317;48.880;-0.862;2022-12-13T00:03:09;99160.16;;;20.40;26.80
72359;BME280;60317;48.880;-0.862;2022-12-13T00:05:41;99162.84;;;20.40;26.79
72359;BME280;60317;48.880;-0.862;2022-12-13T00:08:07;99162.84;;;20.40;26.75
72359;BME280;60317;48.880;-0.862;2022-12-13T00:10:34;99162.00;;;20.40;26.81
72359;BME280;60317;48.880;-0.862;2022-12-13T00:13:00;99160.16;;;20.40;26.88
72359;BME280;60317;48.880;-0.862;2022-12-13T00:15:26;99161.16;;;20.39;26.63
72359;BME280;60317;48.880;-0.862;2022-12-13T00:17:53;99166.34;;;20.41;26.62
72359;BME280;60317;48.880;-0.862;2022-12-13T00:20:20;99174.59;;;20.39;26.72
72359;BME280;60317;48.880;-0.862;2022-12-13T00:22:47;99178.09;;;20.40;26.74
72359;BME280;60317;48.880;-0.862;2022-12-13T00:25:13;99185.31;;;20.39;26.72
72359;BME280;60317;48.880;-0.862;2022-12-13T00:27:40;99177.25;;;20.39;26.74
72359;BME280;60317;48.880;-0.862;2022-12-13T00:30:06;99181.63;;;20.40;26.71
72359;BME280;60317;48.880;-0.862;2022-12-13T00:32:33;99184.44;;;20.39;26.75
72359;BME280;60317;48.880;-0.862;2022-12-13T00:34:59;99177.09;;;20.41;26.60
72359;BME280;60317;48.880;-0.862;2022-12-13T00:37:27;99182.63;;;20.47;26.75
72359;BME280;60317;48.880;-0.862;2022-12-13T00:39:53;99184.53;;;20.55;26.51
72359;BME280;60317;48.880;-0.862;2022-12-13T00:42:19;99176.66;;;20.62;26.43
72359;BME280;60317;48.880;-0.862;2022-12-13T00:44:46;99176.00;;;20.68;26.50
72359;BME280;60317;48.880;-0.862;2022-12-13T00:47:12;99181.19;;;20.78;26.19
72359;BME280;60317;48.880;-0.862;2022-12-13T00:49:38;99176.84;;;20.85;26.29
72359;BME280;60317;48.880;-0.862;2022-12-13T00:52:05;99176.34;;;20.89;26.18
72359;BME280;60317;48.880;-0.862;2022-12-13T00:54:32;99164.94;;;20.95;25.98
72359;BME280;60317;48.880;-0.862;2022-12-13T00:56:59;99169.63;;;21.02;25.90
72359;BME280;60317;48.880;-0.862;2022-12-13T00:59:25;99165.94;;;21.03;25.97
72359;BME280;60317;48.880;-0.862;2022-12-13T01:01:52;99166.59;;;21.05;26.03
72359;BME280;60317;48.880;-0.862;2022-12-13T01:04:18;99172.16;;;21.11;25.96
72359;BME280;60317;48.880;-0.862;2022-12-13T01:06:45;99173.31;;;21.17;25.79
72359;BME280;60317;48.880;-0.862;2022-12-13T01:09:13;99172.13;;;21.19;25.78
72359;BME280;60317;48.880;-0.862;2022-12-13T01:11:42;99164.75;;;21.21;25.82
72359;BME280;60317;48.880;-0.862;2022-12-13T01:14:09;99161.53;;;21.26;25.82
72359;BME280;60317;48.880;-0.862;2022-12-13T01:16:35;99170.28;;;21.28;25.87
72359;BME280;60317;48.880;-0.862;2022-12-13T01:19:01;99175.31;;;21.31;25.58
72359;BME280;60317;48.880;-0.862;2022-12-13T01:21:28;99173.28;;;21.33;25.85
72359;BME280;60317;48.880;-0.862;2022-12-13T01:23:59;99181.03;;;21.36;25.54
72359;BME280;60317;48.880;-0.862;2022-12-13T01:26:25;99177.34;;;21.37;25.38
72359;BME280;60317;48.880;-0.862;2022-12-13T01:28:53;99167.09;;;21.41;25.35
72359;BME280;60317;48.880;-0.862;2022-12-13T01:31:19;99171.63;;;21.40;25.59
72359;BME280;60317;48.880;-0.862;2022-12-13T01:33:46;99181.88;;;21.45;25.44
72359;BME280;60317;48.880;-0.862;2022-12-13T01:36:14;99169.28;;;21.46;25.44
72359;BME280;60317;48.880;-0.862;2022-12-13T01:38:41;99170.94;;;21.47;25.36
72359;BME280;60317;48.880;-0.862;2022-12-13T01:41:09;99161.03;;;21.47;25.34
72359;BME280;60317;48.880;-0.862;2022-12-13T01:43:49;99162.56;;;21.50;25.32
72359;BME280;60317;48.880;-0.862;2022-12-13T01:46:18;99165.06;;;21.51;25.29
72359;BME280;60317;48.880;-0.862;2022-12-13T01:48:45;99168.41;;;21.53;25.25
72359;BME280;60317;48.880;-0.862;2022-12-13T01:51:13;99174.28;;;21.57;25.21
72359;BME280;60317;48.880;-0.862;2022-12-13T01:53:41;99173.47;;;21.56;25.20
72359;BME280;60317;48.880;-0.862;2022-12-13T01:56:10;99179.66;;;21.57;25.33
72359;BME280;60317;48.880;-0.862;2022-12-13T01:58:37;99175.31;;;21.56;25.28
72359;BME280;60317;48.880;-0.862;2022-12-13T02:01:04;99188.41;;;21.59;25.27
72359;BME280;60317;48.880;-0.862;2022-12-13T02:03:32;99189.06;;;21.61;25.19
72359;BME280;60317;48.880;-0.862;2022-12-13T02:06:00;99178.31;;;21.61;25.25
72359;BME280;60317;48.880;-0.862;2022-12-13T02:08:27;99179.00;;;21.63;25.19
72359;BME280;60317;48.880;-0.862;2022-12-13T02:10:53;99167.22;;;21.64;25.15
72359;BME280;60317;48.880;-0.862;2022-12-13T02:13:20;99168.06;;;21.64;25.00
72359;BME280;60317;48.880;-0.862;2022-12-13T02:15:49;99179.31;;;21.68;24.85
72359;BME280;60317;48.880;-0.862;2022-12-13T02:18:23;99187.38;;;21.68;24.98
72359;BME280;60317;48.880;-0.862;2022-12-13T02:23:36;99169.22;;;21.70;24.90
72359;BME280;60317;48.880;-0.862;2022-12-13T02:26:11;99163.66;;;21.72;24.91
72359;BME280;60317;48.880;-0.862;2022-12-13T02:28:51;99140.28;;;21.72;25.05
72359;BME280;60317;48.880;-0.862;2022-12-13T02:31:28;99130.38;;;21.73;24.92
72359;BME280;60317;48.880;-0.862;2022-12-13T02:33:57;99137.44;;;21.74;24.81
72359;BME280;60317;48.880;-0.862;2022-12-13T02:36:27;99137.44;;;21.74;24.89
72359;BME280;60317;48.880;-0.862;2022-12-13T02:39:04;99144.69;;;21.73;24.79
72359;BME280;60317;48.880;-0.862;2022-12-13T02:41:34;99143.31;;;21.77;24.78
72359;BME280;60317;48.880;-0.862;2022-12-13T02:44:05;99131.72;;;21.77;24.73
72359;BME280;60317;48.880;-0.862;2022-12-13T02:46:50;99127.19;;;21.77;24.75
72359;BME280;60317;48.880;-0.862;2022-12-13T02:49:17;99131.53;;;21.78;24.79
72359;BME280;60317;48.880;-0.862;2022-12-13T02:51:45;99124.31;;;21.79;24.72
72359;BME280;60317;48.880;-0.862;2022-12-13T02:54:12;99129.69;;;21.79;24.77
72359;BME280;60317;48.880;-0.862;2022-12-13T02:56:39;99119.75;;;21.79;24.78
72359;BME280;60317;48.880;-0.862;2022-12-13T02:59:08;99124.16;;;21.80;24.69
72359;BME280;60317;48.880;-0.862;2022-12-13T03:01:43;99125.63;;;21.83;24.70
72359;BME280;60317;48.880;-0.862;2022-12-13T03:04:15;99133.53;;;21.84;24.52
72359;BME280;60317;48.880;-0.862;2022-12-13T03:06:54;99135.41;;;21.84;24.72
72359;BME280;60317;48.880;-0.862;2022-12-13T03:09:25;99131.88;;;21.83;24.57
72359;BME280;60317;48.880;-0.862;2022-12-13T03:11:57;99125.63;;;21.83;24.61
72359;BME280;60317;48.880;-0.862;2022-12-13T03:14:30;99124.44;;;21.85;24.58
72359;BME280;60317;48.880;-0.862;2022-12-13T03:16:58;99131.50;;;21.86;24.64
72359;BME280;60317;48.880;-0.862;2022-12-13T03:19:28;99129.66;;;21.87;24.61
72359;BME280;60317;48.880;-0.862;2022-12-13T03:21:54;99131.50;;;21.86;24.60
72359;BME280;60317;48.880;-0.862;2022-12-13T03:24:20;99117.22;;;21.86;24.57
72359;BME280;60317;48.880;-0.862;2022-12-13T03:26:47;99121.59;;;21.87;24.63
72359;BME280;60317;48.880;-0.862;2022-12-13T03:29:15;99116.03;;;21.88;24.50
72359;BME280;60317;48.880;-0.862;2022-12-13T03:31:50;99113.16;;;21.90;24.47
72359;BME280;60317;48.880;-0.862;2022-12-13T03:34:16;99111.31;;;21.90;24.36
72359;BME280;60317;48.880;-0.862;2022-12-13T03:36:49;99106.78;;;21.91;24.31
72359;BME280;60317;48.880;-0.862;2022-12-13T03:39:16;99104.09;;;21.91;24.35
72359;BME280;60317;48.880;-0.862;2022-12-13T03:41:42;99103.91;;;21.92;24.47
72359;BME280;60317;48.880;-0.862;2022-12-13T03:44:09;99116.53;;;21.92;24.48
72359;BME280;60317;48.880;-0.862;2022-12-13T03:46:35;99120.72;;;21.95;24.27
72359;BME280;60317;48.880;-0.862;2022-12-13T03:49:02;99122.72;;;21.92;24.52
72359;BME280;60317;48.880;-0.862;2022-12-13T03:51:28;99110.13;;;21.93;24.40
72359;BME280;60317;48.880;-0.862;2022-12-13T03:53:56;99112.81;;;21.93;24.25
72359;BME280;60317;48.880;-0.862;2022-12-13T03:56:22;99116.31;;;21.93;24.37
72359;BME280;60317;48.880;-0.862;2022-12-13T03:58:48;99105.56;;;21.93;24.37
72359;BME280;60317;48.880;-0.862;2022-12-13T04:01:15;99097.34;;;21.95;24.18
72359;BME280;60317;48.880;-0.862;2022-12-13T04:03:42;99111.44;;;21.97;24.33
72359;BME280;60317;48.880;-0.862;2022-12-13T04:06:09;99109.78;;;21.96;24.23
72359;BME280;60317;48.880;-0.862;2022-12-13T04:08:35;99101.88;;;21.95;24.28
72359;BME280;60317;48.880;-0.862;2022-12-13T04:11:04;99107.06;;;21.96;24.32
72359;BME280;60317;48.880;-0.862;2022-12-13T04:13:30;99095.13;;;21.99;24.17
72359;BME280;60317;48.880;-0.862;2022-12-13T04:15:57;99090.78;;;21.98;24.25
72359;BME280;60317;48.880;-0.862;2022-12-13T04:18:23;99094.47;;;21.97;24.17
72359;BME280;60317;48.880;-0.862;2022-12-13T04:20:49;99088.09;;;21.98;24.22
72359;BME280;60317;48.880;-0.862;2022-12-13T04:23:16;99088.09;;;21.98;24.08
72359;BME280;60317;48.880;-0.862;2022-12-13T04:25:42;99092.44;;;21.99;24.15
72359;BME280;60317;48.880;-0.862;2022-12-13T04:28:10;99102.38;;;21.98;24.22
72359;BME280;60317;48.880;-0.862;2022-12-13T04:30:47;99112.31;;;21.98;24.27
72359;BME280;60317;48.880;-0.862;2022-12-13T04:33:18;99104.03;;;21.99;24.08
72359;BME280;60317;48.880;-0.862;2022-12-13T04:35:45;99100.50;;;21.99;24.19
72359;BME280;60317;48.880;-0.862;2022-12-13T04:38:11;99105.72;;;22.00;24.09
72359;BME280;60317;48.880;-0.862;2022-12-13T04:40:38;99092.09;;;22.02;24.08
72359;BME280;60317;48.880;-0.862;2022-12-13T04:43:04;99102.19;;;22.00;23.99
72359;BME280;60317;48.880;-0.862;2022-12-13T04:45:32;99093.09;;;22.01;24.10
72359;BME280;60317;48.880;-0.862;2022-12-13T04:47:58;99087.72;;;22.01;23.97
72359;BME280;60317;48.880;-0.862;2022-12-13T04:50:25;99084.19;;;22.00;23.90
72359;BME280;60317;48.880;-0.862;2022-12-13T04:52:51;99083.34;;;22.00;24.16
72359;BME280;60317;48.880;-0.862;2022-12-13T04:55:17;99090.41;;;22.01;24.07
72359;BME280;60317;48.880;-0.862;2022-12-13T04:57:44;99096.81;;;22.00;24.14
72359;BME280;60317;48.880;-0.862;2022-12-13T05:00:11;99107.41;;;22.01;24.15
72359;BME280;60317;48.880;-0.862;2022-12-13T05:02:39;99122.53;;;22.02;24.02
72359;BME280;60317;48.880;-0.862;2022-12-13T05:05:06;99125.22;;;22.02;23.86
72359;BME280;60317;48.880;-0.862;2022-12-13T05:07:32;99122.53;;;22.02;23.90
72359;BME280;60317;48.880;-0.862;2022-12-13T05:09:58;99122.34;;;22.04;23.99
72359;BME280;60317;48.880;-0.862;2022-12-13T05:12:25;99121.69;;;22.02;24.01
72359;BME280;60317;48.880;-0.862;2022-12-13T05:14:51;99113.28;;;22.05;23.88
72359;BME280;60317;48.880;-0.862;2022-12-13T05:17:18;99117.97;;;22.03;24.01
72359;BME280;60317;48.880;-0.862;2022-12-13T05:19:46;99115.28;;;22.03;24.02
72359;BME280;60317;48.880;-0.862;2022-12-13T05:22:13;99126.03;;;22.03;23.79
72359;BME280;60317;48.880;-0.862;2022-12-13T05:24:45;99128.59;;;22.04;23.98
72359;BME280;60317;48.880;-0.862;2022-12-13T05:27:12;99139.50;;;22.03;24.08
72359;BME280;60317;48.880;-0.862;2022-12-13T05:29:51;99133.97;;;22.04;23.98
72359;BME280;60317;48.880;-0.862;2022-12-13T05:32:30;99135.97;;;22.02;23.82
72359;BME280;60317;48.880;-0.862;2022-12-13T05:34:58;99140.19;;;22.05;23.75
72359;BME280;60317;48.880;-0.862;2022-12-13T05:37:25;99145.56;;;22.05;23.64
72359;BME280;60317;48.880;-0.862;2022-12-13T05:39:51;99145.56;;;22.05;23.77
72359;BME280;60317;48.880;-0.862;2022-12-13T05:42:17;99146.56;;;22.04;23.76
72359;BME280;60317;48.880;-0.862;2022-12-13T05:44:44;99152.59;;;22.06;23.80
72359;BME280;60317;48.880;-0.862;2022-12-13T05:47:10;99148.06;;;22.06;23.79
72359;BME280;60317;48.880;-0.862;2022-12-13T05:49:36;99148.88;;;22.07;23.73
72359;BME280;60317;48.880;-0.862;2022-12-13T05:52:13;99145.84;;;22.10;23.71
72359;BME280;60317;48.880;-0.862;2022-12-13T05:54:40;99147.91;;;22.08;23.69
72359;BME280;60317;48.880;-0.862;2022-12-13T05:57:08;99153.28;;;22.08;23.81
72359;BME280;60317;48.880;-0.862;2022-12-13T05:59:34;99146.03;;;22.08;23.57
72359;BME280;60317;48.880;-0.862;2022-12-13T06:02:00;99133.59;;;22.07;23.79
72359;BME280;60317;48.880;-0.862;2022-12-13T06:04:27;99129.91;;;22.08;23.73
72359;BME280;60317;48.880;-0.862;2022-12-13T06:06:53;99133.41;;;22.09;23.73
72359;BME280;60317;48.880;-0.862;2022-12-13T06:09:21;99130.72;;;22.09;23.69
72359;BME280;60317;48.880;-0.862;2022-12-13T06:11:47;99119.97;;;22.09;23.76
72359;BME280;60317;48.880;-0.862;2022-12-13T06:14:14;99122.63;;;21.78;23.82
72359;BME280;60317;48.880;-0.862;2022-12-13T06:16:48;99120.63;;;21.72;23.96
72359;BME280;60317;48.880;-0.862;2022-12-13T06:19:15;99119.16;;;21.61;23.89
72359;BME280;60317;48.880;-0.862;2022-12-13T06:21:41;99130.50;;;21.79;23.82
72359;BME280;60317;48.880;-0.862;2022-12-13T06:24:12;99140.91;;;21.90;23.83
72359;BME280;60317;48.880;-0.862;2022-12-13T06:26:40;99135.84;;;21.96;23.67
72359;BME280;60317;48.880;-0.862;2022-12-13T06:29:06;99138.19;;;21.99;23.57
72359;BME280;60317;48.880;-0.862;2022-12-13T06:31:32;99141.69;;;21.99;23.72
72359;BME280;60317;48.880;-0.862;2022-12-13T06:34:00;99142.38;;;22.01;23.47
72359;BME280;60317;48.880;-0.862;2022-12-13T06:36:40;99144.19;;;22.01;23.67
72359;BME280;60317;48.880;-0.862;2022-12-13T06:39:06;99137.66;;;22.03;23.50
72359;BME280;60317;48.880;-0.862;2022-12-13T06:41:33;99138.66;;;22.02;23.58
72359;BME280;60317;48.880;-0.862;2022-12-13T06:44:00;99141.34;;;22.02;23.43
72359;BME280;60317;48.880;-0.862;2022-12-13T06:46:27;99144.72;;;22.04;23.58
72359;BME280;60317;48.880;-0.862;2022-12-13T06:48:53;99142.19;;;22.03;23.65
72359;BME280;60317;48.880;-0.862;2022-12-13T06:51:19;99128.75;;;22.03;23.56
72359;BME280;60317;48.880;-0.862;2022-12-13T06:53:57;99122.53;;;22.02;23.62
72359;BME280;60317;48.880;-0.862;2022-12-13T06:56:26;99116.94;;;22.04;23.57
72359;BME280;60317;48.880;-0.862;2022-12-13T06:58:52;99123.19;;;22.04;23.59
72359;BME280;60317;48.880;-0.862;2022-12-13T07:01:28;99123.00;;;22.06;23.48
72359;BME280;60317;48.880;-0.862;2022-12-13T07:04:03;99129.22;;;22.06;23.56
72359;BME280;60317;48.880;-0.862;2022-12-13T07:06:29;99117.44;;;22.07;23.58
72359;BME280;60317;48.880;-0.862;2022-12-13T07:08:56;99122.66;;;22.09;23.55
72359;BME280;60317;48.880;-0.862;2022-12-13T07:11:23;99127.03;;;22.10;23.47
72359;BME280;60317;48.880;-0.862;2022-12-13T07:13:50;99126.84;;;22.11;23.48
72359;BME280;60317;48.880;-0.862;2022-12-13T07:16:16;99129.56;;;22.11;23.61
72359;BME280;60317;48.880;-0.862;2022-12-13T07:18:44;99118.59;;;22.13;23.66
72359;BME280;60317;48.880;-0.862;2022-12-13T07:21:11;99127.69;;;22.12;23.59
72359;BME280;60317;48.880;-0.862;2022-12-13T07:23:47;99132.75;;;22.15;23.57
72359;BME280;60317;48.880;-0.862;2022-12-13T07:26:20;99137.94;;;22.17;23.65
72359;BME280;60317;48.880;-0.862;2022-12-13T07:28:47;99137.13;;;22.16;23.61
72359;BME280;60317;48.880;-0.862;2022-12-13T07:31:20;99150.38;;;22.18;23.64
72359;BME280;60317;48.880;-0.862;2022-12-13T07:33:47;99136.94;;;22.18;23.67
72359;BME280;60317;48.880;-0.862;2022-12-13T07:36:15;99136.09;;;22.17;23.66
72359;BME280;60317;48.880;-0.862;2022-12-13T07:38:41;99138.78;;;22.17;23.70
72359;BME280;60317;48.880;-0.862;2022-12-13T07:41:10;99121.81;;;22.17;23.55
72359;BME280;60317;48.880;-0.862;2022-12-13T07:43:36;99122.63;;;22.17;23.59
72359;BME280;60317;48.880;-0.862;2022-12-13T07:46:04;99120.97;;;22.16;23.55
72359;BME280;60317;48.880;-0.862;2022-12-13T07:48:31;99111.88;;;22.17;23.61
72359;BME280;60317;48.880;-0.862;2022-12-13T07:51:00;99111.72;;;21.71;22.76
72359;BME280;60317;48.880;-0.862;2022-12-13T07:53:27;99122.94;;;21.35;22.78
72359;BME280;60317;48.880;-0.862;2022-12-13T07:56:00;99116.19;;;21.31;22.86
72359;BME280;60317;48.880;-0.862;2022-12-13T07:58:26;99118.25;;;21.21;22.54
72359;BME280;60317;48.880;-0.862;2022-12-13T08:00:52;99119.59;;;21.17;22.43
72359;BME280;60317;48.880;-0.862;2022-12-13T08:03:23;99117.41;;;21.12;22.74
72359;BME280;60317;48.880;-0.862;2022-12-13T08:05:57;99125.31;;;21.14;22.68
72359;BME280;60317;48.880;-0.862;2022-12-13T08:08:25;99136.06;;;21.14;22.59
72359;BME280;60317;48.880;-0.862;2022-12-13T08:10:59;99129.28;;;21.26;22.65
72359;BME280;60317;48.880;-0.862;2022-12-13T08:13:27;99131.66;;;21.37;22.60
72359;BME280;60317;48.880;-0.862;2022-12-13T08:15:56;99138.38;;;21.41;22.68
72359;BME280;60317;48.880;-0.862;2022-12-13T08:18:22;99141.72;;;21.43;22.44
72359;BME280;60317;48.880;-0.862;2022-12-13T08:20:48;99140.38;;;21.31;22.37
72359;BME280;60317;48.880;-0.862;2022-12-13T08:23:15;99136.38;;;21.19;22.45
72359;BME280;60317;48.880;-0.862;2022-12-13T08:25:42;99146.13;;;21.20;22.53
72359;BME280;60317;48.880;-0.862;2022-12-13T08:28:15;99143.22;;;21.30;22.64
72359;BME280;60317;48.880;-0.862;2022-12-13T08:30:41;99138.38;;;21.41;22.71
72359;BME280;60317;48.880;-0.862;2022-12-13T08:33:07;99141.38;;;21.47;22.69
72359;BME280;60317;48.880;-0.862;2022-12-13T08:35:34;99147.75;;;21.54;22.73
72359;BME280;60317;48.880;-0.862;2022-12-13T08:38:00;99142.22;;;21.55;22.74
72359;BME280;60317;48.880;-0.862;2022-12-13T08:40:27;99132.59;;;21.61;22.79
72359;BME280;60317;48.880;-0.862;2022-12-13T08:42:54;99131.44;;;21.63;22.75
72359;BME280;60317;48.880;-0.862;2022-12-13T08:45:21;99138.97;;;21.68;22.92
72359;BME280;60317;48.880;-0.862;2022-12-13T08:47:47;99133.59;;;21.68;22.76
72359;BME280;60317;48.880;-0.862;2022-12-13T08:50:14;99138.97;;;21.68;22.95
72359;BME280;60317;48.880;-0.862;2022-12-13T08:52:41;99132.75;;;21.67;22.91
72359;BME280;60317;48.880;-0.862;2022-12-13T08:55:08;99140.28;;;21.72;22.96
72359;BME280;60317;48.880;-0.862;2022-12-13T08:57:34;99140.47;;;21.71;22.85
72359;BME280;60317;48.880;-0.862;2022-12-13T09:00:02;99131.56;;;21.70;22.96
72359;BME280;60317;48.880;-0.862;2022-12-13T09:02:29;99123.31;;;21.72;22.90
72359;BME280;60317;48.880;-0.862;2022-12-13T09:05:03;99124.50;;;21.77;22.82
72359;BME280;60317;48.880;-0.862;2022-12-13T09:07:30;99133.53;;;21.84;22.90
72359;BME280;60317;48.880;-0.862;2022-12-13T09:09:56;99144.59;;;21.89;22.77
72359;BME280;60317;48.880;-0.862;2022-12-13T09:12:22;99146.94;;;21.92;22.79
72359;BME280;60317;48.880;-0.862;2022-12-13T09:14:56;99147.63;;;21.95;22.70
72359;BME280;60317;48.880;-0.862;2022-12-13T09:17:30;99149.28;;;21.96;22.72
72359;BME280;60317;48.880;-0.862;2022-12-13T09:20:03;99146.59;;;21.96;22.91
72359;BME280;60317;48.880;-0.862;2022-12-13T09:22:49;99139.53;;;21.95;22.88
72359;BME280;60317;48.880;-0.862;2022-12-13T09:25:15;99125.91;;;21.96;22.82
72359;BME280;60317;48.880;-0.862;2022-12-13T09:27:49;99127.41;;;21.99;22.87
72359;BME280;60317;48.880;-0.862;2022-12-13T09:30:16;99139.19;;;21.98;22.68
72359;BME280;60317;48.880;-0.862;2022-12-13T09:32:43;99135.50;;;21.99;22.72
72359;BME280;60317;48.880;-0.862;2022-12-13T09:35:10;99123.72;;;22.00;22.64
72359;BME280;60317;48.880;-0.862;2022-12-13T09:37:36;99107.41;;;22.01;22.67
72359;BME280;60317;48.880;-0.862;2022-12-13T09:40:11;99102.66;;;22.03;22.56
72359;BME280;60317;48.880;-0.862;2022-12-13T09:42:51;99103.50;;;22.04;22.66
72359;BME280;60317;48.880;-0.862;2022-12-13T09:45:39;99100.16;;;22.02;22.62
72359;BME280;60317;48.880;-0.862;2022-12-13T09:48:10;99112.16;;;21.91;22.59
72359;BME280;60317;48.880;-0.862;2022-12-13T09:50:48;99110.38;;;21.75;22.51
72359;BME280;60317;48.880;-0.862;2022-12-13T09:53:35;99123.75;;;21.91;22.44
72359;BME280;60317;48.880;-0.862;2022-12-13T09:56:02;99126.75;;;21.97;22.52
72359;BME280;60317;48.880;-0.862;2022-12-13T09:58:36;99135.75;;;21.73;22.34
72359;BME280;60317;48.880;-0.862;2022-12-13T10:01:03;99147.75;;;21.54;22.36
72359;BME280;60317;48.880;-0.862;2022-12-13T10:03:31;99154.31;;;21.43;22.35
72359;BME280;60317;48.880;-0.862;2022-12-13T10:05:58;99155.50;;;21.32;22.26
72359;BME280;60317;48.880;-0.862;2022-12-13T10:08:26;99151.75;;;21.58;22.48
72359;BME280;60317;48.880;-0.862;2022-12-13T10:10:53;99153.38;;;21.83;22.44
72359;BME280;60317;48.880;-0.862;2022-12-13T10:13:21;99161.41;;;21.91;22.26
72359;BME280;60317;48.880;-0.862;2022-12-13T10:15:51;99167.09;;;21.49;22.37
72359;BME280;60317;48.880;-0.862;2022-12-13T10:18:24;99156.31;;;21.33;22.45
72359;BME280;60317;48.880;-0.862;2022-12-13T10:20:53;99158.03;;;21.26;22.56
72359;BME280;60317;48.880;-0.862;2022-12-13T10:23:20;99161.22;;;21.29;22.45
72359;BME280;60317;48.880;-0.862;2022-12-13T10:26:07;99159.56;;;21.20;22.58
72359;BME280;60317;48.880;-0.862;2022-12-13T10:28:40;99158.22;;;21.08;22.33
72359;BME280;60317;48.880;-0.862;2022-12-13T10:31:07;99146.13;;;20.87;22.45
72359;BME280;60317;48.880;-0.862;2022-12-13T10:33:35;99142.78;;;20.85;22.29
72359;BME280;60317;48.880;-0.862;2022-12-13T10:36:05;99130.03;;;20.71;22.37
72359;BME280;60317;48.880;-0.862;2022-12-13T10:38:34;99118.09;;;20.65;22.15
72359;BME280;60317;48.880;-0.862;2022-12-13T10:41:00;99113.06;;;20.70;22.32
72359;BME280;60317;48.880;-0.862;2022-12-13T10:43:27;99119.09;;;20.81;22.42
72359;BME280;60317;48.880;-0.862;2022-12-13T10:45:57;99112.22;;;20.86;22.51
72359;BME280;60317;48.880;-0.862;2022-12-13T10:48:26;99097.78;;;20.87;22.47
72359;BME280;60317;48.880;-0.862;2022-12-13T10:51:05;99092.06;;;20.74;22.65
72359;BME280;60317;48.880;-0.862;2022-12-13T10:53:33;99093.09;;;20.81;22.74
72359;BME280;60317;48.880;-0.862;2022-12-13T10:56:00;99095.59;;;20.91;23.01
72359;BME280;60317;48.880;-0.862;2022-12-13T10:58:36;99088.69;;;21.21;22.77
72359;BME280;60317;48.880;-0.862;2022-12-13T11:01:07;99085.63;;;21.40;22.73
72359;BME280;60317;48.880;-0.862;2022-12-13T11:03:34;99071.16;;;21.50;22.54
72359;BME280;60317;48.880;-0.862;2022-12-13T11:06:01;99063.03;;;21.58;22.54
72359;BME280;60317;48.880;-0.862;2022-12-13T11:08:29;99068.91;;;21.61;22.73
72359;BME280;60317;48.880;-0.862;2022-12-13T11:10:56;99070.22;;;21.65;22.53
72359;BME280;60317;48.880;-0.862;2022-12-13T11:13:23;99080.66;;;21.68;22.70
72359;BME280;60317;48.880;-0.862;2022-12-13T11:15:53;99090.41;;;21.70;22.73
72359;BME280;60317;48.880;-0.862;2022-12-13T11:18:21;99080.78;;;21.75;22.87
72359;BME280;60317;48.880;-0.862;2022-12-13T11:20:52;99073.38;;;21.77;22.62
72359;BME280;60317;48.880;-0.862;2022-12-13T11:23:21;99068.66;;;21.79;22.55
72359;BME280;60317;48.880;-0.862;2022-12-13T11:25:54;99054.88;;;21.82;22.64
72359;BME280;60317;48.880;-0.862;2022-12-13T11:28:26;99048.50;;;21.83;22.92
72359;BME280;60317;48.880;-0.862;2022-12-13T11:31:00;99043.59;;;21.87;22.80
72359;BME280;60317;48.880;-0.862;2022-12-13T11:33:35;99033.97;;;21.92;22.95
72359;BME280;60317;48.880;-0.862;2022-12-13T11:36:16;99038.31;;;21.93;22.59
72359;BME280;60317;48.880;-0.862;2022-12-13T11:38:48;99027.56;;;21.93;22.92
72359;BME280;60317;48.880;-0.862;2022-12-13T11:41:25;99018.28;;;21.73;22.91
72359;BME280;60317;48.880;-0.862;2022-12-13T11:43:58;99029.38;;;21.31;22.83
72359;BME280;60317;48.880;-0.862;2022-12-13T11:46:28;99027.19;;;21.26;22.90
72359;BME280;60317;48.880;-0.862;2022-12-13T11:49:05;99028.59;;;21.14;22.72
72359;BME280;60317;48.880;-0.862;2022-12-13T11:51:37;99020.41;;;20.99;22.85
72359;BME280;60317;48.880;-0.862;2022-12-13T11:54:07;99008.50;;;20.93;22.80
72359;BME280;60317;48.880;-0.862;2022-12-13T11:56:37;99000.44;;;20.93;22.69
72359;BME280;60317;48.880;-0.862;2022-12-13T11:59:07;98996.22;;;20.91;22.93
72359;BME280;60317;48.880;-0.862;2022-12-13T12:01:48;98984.84;;;20.89;23.06
72359;BME280;60317;48.880;-0.862;2022-12-13T12:04:18;98995.72;;;20.87;23.11
72359;BME280;60317;48.880;-0.862;2022-12-13T12:06:47;98982.50;;;20.86;23.50
72359;BME280;60317;48.880;-0.862;2022-12-13T12:09:16;98964.19;;;20.81;23.46
72359;BME280;60317;48.880;-0.862;2022-12-13T12:11:47;98966.03;;;20.81;23.53
72359;BME280;60317;48.880;-0.862;2022-12-13T12:14:17;98971.06;;;20.84;23.67
72359;BME280;60317;48.880;-0.862;2022-12-13T12:16:47;98959.19;;;20.78;23.81
72359;BME280;60317;48.880;-0.862;2022-12-13T12:19:16;98957.34;;;20.79;24.15
72359;BME280;60317;48.880;-0.862;2022-12-13T12:21:50;98958.66;;;20.83;24.18
72359;BME280;60317;48.880;-0.862;2022-12-13T12:24:43;98949.25;;;20.87;24.33
72359;BME280;60317;48.880;-0.862;2022-12-13T12:27:17;98948.78;;;20.75;24.40
72359;BME280;60317;48.880;-0.862;2022-12-13T12:29:53;98948.47;;;20.62;24.20
72359;BME280;60317;48.880;-0.862;2022-12-13T12:32:25;98944.94;;;20.69;24.13
72359;BME280;60317;48.880;-0.862;2022-12-13T12:34:58;98953.16;;;20.76;24.30
72359;BME280;60317;48.880;-0.862;2022-12-13T12:37:33;98961.19;;;20.76;24.49
72359;BME280;60317;48.880;-0.862;2022-12-13T12:40:14;98947.78;;;20.76;24.56
72359;BME280;60317;48.880;-0.862;2022-12-13T12:42:49;98943.25;;;20.77;24.57
72359;BME280;60317;48.880;-0.862;2022-12-13T12:45:44;98937.50;;;20.88;24.78
72359;BME280;60317;48.880;-0.862;2022-12-13T12:51:19;98921.41;;;20.80;24.56
72359;BME280;60317;48.880;-0.862;2022-12-13T12:53:49;98917.91;;;20.79;24.43
72359;BME280;60317;48.880;-0.862;2022-12-13T12:56:22;98911.50;;;20.80;24.34
72359;BME280;60317;48.880;-0.862;2022-12-13T12:58:54;98913.69;;;20.77;24.31
72359;BME280;60317;48.880;-0.862;2022-12-13T13:01:27;98904.63;;;20.78;24.36
72359;BME280;60317;48.880;-0.862;2022-12-13T13:04:09;98920.13;;;20.67;24.66
72359;BME280;60317;48.880;-0.862;2022-12-13T13:06:37;98923.94;;;20.73;24.34